sensor_id;sensor_type;location;lat;lon;timestamp;temperature;humidity
33955;DHT22;20233;50.804;7.126;2023-08-08T00:00:11;14.90;99.90
33955;DHT22;20233;50.804;7.126;2023-08-08T00:02:37;14.90;99.90
33955;DHT22;20233;50.804;7.126;2023-08-08T00:05:03;14.80;99.90
33955;DHT22;20233;50.804;7.126;2023-08-08T00:07:29;14.80;99.90
33955;DHT22;20233;50.804;7.126;2023-08-08T00:09:56;14.90;99.90
33955;DHT22;20233;50.804;7.126;2023-08-08T00:12:21;14.80;99.90
33955;DHT22;20233;50.804;7.126;2023-08-08T00:14:47;14.80;99.90
33955;DHT22;20233;50.804;7.126;2023-08-08T00:17:12;14.90;99.90
33955;DHT22;20233;50.804;7.126;2023-08-08T00:19:38;14.80;99.90
33955;DHT22;20233;50.804;7.126;2023-08-08T00:22:04;14.80;99.90
33955;DHT22;20233;50.804;7.126;2023-08-08T00:24:29;14.80;99.90
33955;DHT22;20233;50.804;7.126;2023-08-08T00:26:56;14.80;99.90
33955;DHT22;20233;50.804;7.126;2023-08-08T00:29:22;14.80;99.90
33955;DHT22;20233;50.804;7.126;2023-08-08T00:31:47;14.70;99.90
33955;DHT22;20233;50.804;7.126;2023-08-08T00:34:13;14.70;99.90
33955;DHT22;20233;50.804;7.126;2023-08-08T00:36:38;14.70;99.90
33955;DHT22;20233;50.804;7.126;2023-08-08T00:39:04;14.70;99.90
33955;DHT22;20233;50.804;7.126;2023-08-08T00:41:29;14.70;99.90
33955;DHT22;20233;50.804;7.126;2023-08-08T00:43:55;14.70;99.90
33955;DHT22;20233;50.804;7.126;2023-08-08T00:46:21;14.70;99.90
33955;DHT22;20233;50.804;7.126;2023-08-08T00:48:47;14.70;99.90
33955;DHT22;20233;50.804;7.126;2023-08-08T00:51:13;14.70;99.90
33955;DHT22;20233;50.804;7.126;2023-08-08T00:53:39;14.60;99.90
33955;DHT22;20233;50.804;7.126;2023-08-08T00:56:05;14.60;99.90
33955;DHT22;20233;50.804;7.126;2023-08-08T00:58:31;14.50;99.90
33955;DHT22;20233;50.804;7.126;2023-08-08T01:00:56;14.50;99.90
33955;DHT22;20233;50.804;7.126;2023-08-08T01:03:25;14.40;99.90
33955;DHT22;20233;50.804;7.126;2023-08-08T01:06:01;14.40;99.90
33955;DHT22;20233;50.804;7.126;2023-08-08T01:08:33;14.40;99.90
33955;DHT22;20233;50.804;7.126;2023-08-08T01:11:02;14.40;99.90
33955;DHT22;20233;50.804;7.126;2023-08-08T01:13:28;14.30;99.90
33955;DHT22;20233;50.804;7.126;2023-08-08T01:15:57;14.20;99.90
33955;DHT22;20233;50.804;7.126;2023-08-08T01:18:23;14.30;99.90
33955;DHT22;20233;50.804;7.126;2023-08-08T01:20:50;14.20;99.90
33955;DHT22;20233;50.804;7.126;2023-08-08T01:23:28;14.20;99.90
33955;DHT22;20233;50.804;7.126;2023-08-08T01:25:57;14.20;99.90
33955;DHT22;20233;50.804;7.126;2023-08-08T01:28:23;14.20;99.90
33955;DHT22;20233;50.804;7.126;2023-08-08T01:30:49;14.20;99.90
33955;DHT22;20233;50.804;7.126;2023-08-08T01:33:15;14.20;99.90
33955;DHT22;20233;50.804;7.126;2023-08-08T01:35:47;14.10;99.90
33955;DHT22;20233;50.804;7.126;2023-08-08T01:38:29;14.10;99.90
33955;DHT22;20233;50.804;7.126;2023-08-08T01:40:57;14.10;99.90
33955;DHT22;20233;50.804;7.126;2023-08-08T01:43:24;14.00;99.90
33955;DHT22;20233;50.804;7.126;2023-08-08T01:45:50;14.00;99.90
33955;DHT22;20233;50.804;7.126;2023-08-08T01:48:17;13.90;99.90
33955;DHT22;20233;50.804;7.126;2023-08-08T01:50:43;13.90;99.90
33955;DHT22;20233;50.804;7.126;2023-08-08T01:53:08;13.80;99.90
33955;DHT22;20233;50.804;7.126;2023-08-08T01:55:34;13.80;99.90
33955;DHT22;20233;50.804;7.126;2023-08-08T01:58:00;13.80;99.90
33955;DHT22;20233;50.804;7.126;2023-08-08T02:00:25;13.70;99.90
33955;DHT22;20233;50.804;7.126;2023-08-08T02:02:51;13.70;99.90
33955;DHT22;20233;50.804;7.126;2023-08-08T02:05:16;13.70;99.90
33955;DHT22;20233;50.804;7.126;2023-08-08T02:07:42;13.70;99.90
33955;DHT22;20233;50.804;7.126;2023-08-08T02:10:08;13.70;99.90
33955;DHT22;20233;50.804;7.126;2023-08-08T02:12:33;13.60;99.90
33955;DHT22;20233;50.804;7.126;2023-08-08T02:14:59;13.50;99.90
33955;DHT22;20233;50.804;7.126;2023-08-08T02:17:25;13.40;99.90
33955;DHT22;20233;50.804;7.126;2023-08-08T02:19:51;13.40;99.90
33955;DHT22;20233;50.804;7.126;2023-08-08T02:22:17;13.30;99.90
33955;DHT22;20233;50.804;7.126;2023-08-08T02:24:44;13.30;99.90
33955;DHT22;20233;50.804;7.126;2023-08-08T02:27:11;13.20;99.90
33955;DHT22;20233;50.804;7.126;2023-08-08T02:29:37;13.20;99.90
33955;DHT22;20233;50.804;7.126;2023-08-08T02:32:03;13.20;99.90
33955;DHT22;20233;50.804;7.126;2023-08-08T02:34:28;13.20;99.90
33955;DHT22;20233;50.804;7.126;2023-08-08T02:36:54;13.20;99.90
33955;DHT22;20233;50.804;7.126;2023-08-08T02:39:19;13.20;99.90
33955;DHT22;20233;50.804;7.126;2023-08-08T02:41:45;13.10;99.90
33955;DHT22;20233;50.804;7.126;2023-08-08T02:44:11;13.20;99.90
33955;DHT22;20233;50.804;7.126;2023-08-08T02:46:37;13.20;99.90
33955;DHT22;20233;50.804;7.126;2023-08-08T02:49:04;13.10;99.90
33955;DHT22;20233;50.804;7.126;2023-08-08T02:51:30;13.10;99.90
33955;DHT22;20233;50.804;7.126;2023-08-08T02:53:55;13.00;99.90
33955;DHT22;20233;50.804;7.126;2023-08-08T02:56:22;12.90;99.90
33955;DHT22;20233;50.804;7.126;2023-08-08T02:58:48;12.80;99.90
33955;DHT22;20233;50.804;7.126;2023-08-08T03:01:14;12.80;99.90
33955;DHT22;20233;50.804;7.126;2023-08-08T03:06:06;12.80;99.90
33955;DHT22;20233;50.804;7.126;2023-08-08T03:08:32;12.80;99.90
33955;DHT22;20233;50.804;7.126;2023-08-08T03:10:57;12.70;99.90
33955;DHT22;20233;50.804;7.126;2023-08-08T03:13:23;12.80;99.90
33955;DHT22;20233;50.804;7.126;2023-08-08T03:15:49;12.70;99.90
33955;DHT22;20233;50.804;7.126;2023-08-08T03:18:14;12.70;99.90
33955;DHT22;20233;50.804;7.126;2023-08-08T03:20:40;12.70;99.90
33955;DHT22;20233;50.804;7.126;2023-08-08T03:23:05;12.70;99.90
33955;DHT22;20233;50.804;7.126;2023-08-08T03:25:31;12.70;99.90
33955;DHT22;20233;50.804;7.126;2023-08-08T03:27:57;12.70;99.90
33955;DHT22;20233;50.804;7.126;2023-08-08T03:30:22;12.70;99.90
33955;DHT22;20233;50.804;7.126;2023-08-08T03:32:48;12.80;99.90
33955;DHT22;20233;50.804;7.126;2023-08-08T03:35:13;12.70;99.90
33955;DHT22;20233;50.804;7.126;2023-08-08T03:37:40;12.70;99.90
33955;DHT22;20233;50.804;7.126;2023-08-08T03:40:06;12.80;99.90
33955;DHT22;20233;50.804;7.126;2023-08-08T03:42:33;12.80;99.90
33955;DHT22;20233;50.804;7.126;2023-08-08T03:44:58;12.80;99.90
33955;DHT22;20233;50.804;7.126;2023-08-08T03:47:24;12.90;99.90
33955;DHT22;20233;50.804;7.126;2023-08-08T03:49:49;13.00;99.90
33955;DHT22;20233;50.804;7.126;2023-08-08T03:52:15;13.10;99.90
33955;DHT22;20233;50.804;7.126;2023-08-08T03:54:40;13.00;99.90
33955;DHT22;20233;50.804;7.126;2023-08-08T03:57:06;12.90;99.90
33955;DHT22;20233;50.804;7.126;2023-08-08T03:59:32;12.90;99.90
33955;DHT22;20233;50.804;7.126;2023-08-08T04:01:57;12.90;99.90
33955;DHT22;20233;50.804;7.126;2023-08-08T04:04:23;12.80;99.90
33955;DHT22;20233;50.804;7.126;2023-08-08T04:06:48;12.80;99.90
33955;DHT22;20233;50.804;7.126;2023-08-08T04:09:14;12.80;99.90
33955;DHT22;20233;50.804;7.126;2023-08-08T04:11:40;12.70;99.90
33955;DHT22;20233;50.804;7.126;2023-08-08T04:14:05;12.70;99.90
33955;DHT22;20233;50.804;7.126;2023-08-08T04:16:31;12.70;99.90
33955;DHT22;20233;50.804;7.126;2023-08-08T04:18:56;12.70;99.90
33955;DHT22;20233;50.804;7.126;2023-08-08T04:21:22;12.70;99.90
33955;DHT22;20233;50.804;7.126;2023-08-08T04:23:48;12.70;99.90
33955;DHT22;20233;50.804;7.126;2023-08-08T04:26:14;12.70;99.90
33955;DHT22;20233;50.804;7.126;2023-08-08T04:28:40;12.60;99.90
33955;DHT22;20233;50.804;7.126;2023-08-08T04:31:05;12.60;99.90
33955;DHT22;20233;50.804;7.126;2023-08-08T04:33:31;12.60;99.90
33955;DHT22;20233;50.804;7.126;2023-08-08T04:35:58;12.50;99.90
33955;DHT22;20233;50.804;7.126;2023-08-08T04:38:25;12.60;99.90
33955;DHT22;20233;50.804;7.126;2023-08-08T04:40:51;12.60;99.90
33955;DHT22;20233;50.804;7.126;2023-08-08T04:43:16;12.60;99.90
33955;DHT22;20233;50.804;7.126;2023-08-08T04:45:42;12.60;99.90
33955;DHT22;20233;50.804;7.126;2023-08-08T04:48:07;12.70;99.90
33955;DHT22;20233;50.804;7.126;2023-08-08T04:50:33;12.80;99.90
33955;DHT22;20233;50.804;7.126;2023-08-08T04:53:00;12.80;99.90
33955;DHT22;20233;50.804;7.126;2023-08-08T04:55:25;12.80;99.90
33955;DHT22;20233;50.804;7.126;2023-08-08T04:57:51;12.80;99.90
33955;DHT22;20233;50.804;7.126;2023-08-08T05:00:17;12.90;99.90
33955;DHT22;20233;50.804;7.126;2023-08-08T05:02:42;12.90;99.90
33955;DHT22;20233;50.804;7.126;2023-08-08T05:05:08;13.00;99.90
33955;DHT22;20233;50.804;7.126;2023-08-08T05:07:34;13.00;99.90
33955;DHT22;20233;50.804;7.126;2023-08-08T05:10:04;13.10;99.90
33955;DHT22;20233;50.804;7.126;2023-08-08T05:12:32;13.10;99.90
33955;DHT22;20233;50.804;7.126;2023-08-08T05:14:59;13.10;99.90
33955;DHT22;20233;50.804;7.126;2023-08-08T05:17:26;13.20;99.90
33955;DHT22;20233;50.804;7.126;2023-08-08T05:19:52;13.20;99.90
33955;DHT22;20233;50.804;7.126;2023-08-08T05:22:18;13.40;99.90
33955;DHT22;20233;50.804;7.126;2023-08-08T05:24:45;13.30;99.90
33955;DHT22;20233;50.804;7.126;2023-08-08T05:27:11;13.40;99.90
33955;DHT22;20233;50.804;7.126;2023-08-08T05:29:38;13.60;99.90
33955;DHT22;20233;50.804;7.126;2023-08-08T05:32:07;13.70;99.90
33955;DHT22;20233;50.804;7.126;2023-08-08T05:34:34;13.80;99.90
33955;DHT22;20233;50.804;7.126;2023-08-08T05:37:02;13.80;99.90
33955;DHT22;20233;50.804;7.126;2023-08-08T05:39:30;13.80;99.90
33955;DHT22;20233;50.804;7.126;2023-08-08T05:41:58;13.90;99.90
33955;DHT22;20233;50.804;7.126;2023-08-08T05:44:24;14.00;99.90
33955;DHT22;20233;50.804;7.126;2023-08-08T05:46:51;14.00;99.90
33955;DHT22;20233;50.804;7.126;2023-08-08T05:49:18;14.00;99.90
33955;DHT22;20233;50.804;7.126;2023-08-08T05:51:44;14.10;99.90
33955;DHT22;20233;50.804;7.126;2023-08-08T05:54:10;14.20;99.90
33955;DHT22;20233;50.804;7.126;2023-08-08T05:56:38;14.10;99.90
33955;DHT22;20233;50.804;7.126;2023-08-08T05:59:04;14.30;99.90
33955;DHT22;20233;50.804;7.126;2023-08-08T06:01:31;14.30;99.90
33955;DHT22;20233;50.804;7.126;2023-08-08T06:03:58;14.40;99.90
33955;DHT22;20233;50.804;7.126;2023-08-08T06:06:26;14.50;99.90
33955;DHT22;20233;50.804;7.126;2023-08-08T06:08:53;14.60;99.90
33955;DHT22;20233;50.804;7.126;2023-08-08T06:11:20;14.60;99.90
33955;DHT22;20233;50.804;7.126;2023-08-08T06:13:48;14.80;99.90
33955;DHT22;20233;50.804;7.126;2023-08-08T06:16:15;14.80;99.90
33955;DHT22;20233;50.804;7.126;2023-08-08T06:18:42;14.90;99.90
33955;DHT22;20233;50.804;7.126;2023-08-08T06:21:09;15.00;99.90
33955;DHT22;20233;50.804;7.126;2023-08-08T06:23:36;15.00;99.90
33955;DHT22;20233;50.804;7.126;2023-08-08T06:26:03;15.10;99.90
33955;DHT22;20233;50.804;7.126;2023-08-08T06:28:30;15.10;99.90
33955;DHT22;20233;50.804;7.126;2023-08-08T06:30:59;15.20;99.90
33955;DHT22;20233;50.804;7.126;2023-08-08T06:33:26;15.20;99.90
33955;DHT22;20233;50.804;7.126;2023-08-08T06:35:54;15.30;99.90
33955;DHT22;20233;50.804;7.126;2023-08-08T06:38:20;15.30;99.90
33955;DHT22;20233;50.804;7.126;2023-08-08T06:40:47;15.40;99.90
33955;DHT22;20233;50.804;7.126;2023-08-08T06:43:14;15.50;99.90
33955;DHT22;20233;50.804;7.126;2023-08-08T06:45:40;15.60;99.90
33955;DHT22;20233;50.804;7.126;2023-08-08T06:48:07;15.70;99.90
33955;DHT22;20233;50.804;7.126;2023-08-08T06:50:34;15.70;99.90
33955;DHT22;20233;50.804;7.126;2023-08-08T06:53:01;15.80;99.90
33955;DHT22;20233;50.804;7.126;2023-08-08T06:55:28;15.90;99.90
33955;DHT22;20233;50.804;7.126;2023-08-08T06:57:55;16.00;99.90
33955;DHT22;20233;50.804;7.126;2023-08-08T07:00:23;16.10;99.90
33955;DHT22;20233;50.804;7.126;2023-08-08T07:02:50;16.30;99.90
33955;DHT22;20233;50.804;7.126;2023-08-08T07:05:16;16.20;99.90
33955;DHT22;20233;50.804;7.126;2023-08-08T07:07:43;16.20;99.90
33955;DHT22;20233;50.804;7.126;2023-08-08T07:10:10;16.30;99.90
33955;DHT22;20233;50.804;7.126;2023-08-08T07:12:39;16.40;99.90
33955;DHT22;20233;50.804;7.126;2023-08-08T07:15:07;16.40;99.90
33955;DHT22;20233;50.804;7.126;2023-08-08T07:17:34;16.50;99.90
33955;DHT22;20233;50.804;7.126;2023-08-08T07:20:01;16.70;99.90
33955;DHT22;20233;50.804;7.126;2023-08-08T07:22:28;16.70;99.90
33955;DHT22;20233;50.804;7.126;2023-08-08T07:24:55;16.80;99.90
33955;DHT22;20233;50.804;7.126;2023-08-08T07:27:21;16.80;99.90
33955;DHT22;20233;50.804;7.126;2023-08-08T07:29:48;16.90;99.90
33955;DHT22;20233;50.804;7.126;2023-08-08T07:32:16;17.00;99.90
33955;DHT22;20233;50.804;7.126;2023-08-08T07:34:43;17.00;99.90
33955;DHT22;20233;50.804;7.126;2023-08-08T07:37:10;17.00;99.90
33955;DHT22;20233;50.804;7.126;2023-08-08T07:39:37;17.10;99.90
33955;DHT22;20233;50.804;7.126;2023-08-08T07:42:04;17.20;99.90
33955;DHT22;20233;50.804;7.126;2023-08-08T07:44:30;17.20;99.90
33955;DHT22;20233;50.804;7.126;2023-08-08T07:47:01;17.30;99.90
33955;DHT22;20233;50.804;7.126;2023-08-08T07:49:27;17.20;99.90
33955;DHT22;20233;50.804;7.126;2023-08-08T07:51:53;17.30;99.90
33955;DHT22;20233;50.804;7.126;2023-08-08T07:54:20;17.40;99.90
33955;DHT22;20233;50.804;7.126;2023-08-08T07:56:46;17.50;99.90
33955;DHT22;20233;50.804;7.126;2023-08-08T07:59:13;17.50;99.90
33955;DHT22;20233;50.804;7.126;2023-08-08T08:01:39;17.60;99.90
33955;DHT22;20233;50.804;7.126;2023-08-08T08:04:05;17.60;99.90
33955;DHT22;20233;50.804;7.126;2023-08-08T08:06:32;17.60;99.90
33955;DHT22;20233;50.804;7.126;2023-08-08T08:08:58;17.60;99.90
33955;DHT22;20233;50.804;7.126;2023-08-08T08:11:24;17.70;99.90
33955;DHT22;20233;50.804;7.126;2023-08-08T08:13:51;17.80;99.90
33955;DHT22;20233;50.804;7.126;2023-08-08T08:16:17;17.90;99.90
33955;DHT22;20233;50.804;7.126;2023-08-08T08:18:44;17.90;99.90
33955;DHT22;20233;50.804;7.126;2023-08-08T08:21:14;18.00;99.90
33955;DHT22;20233;50.804;7.126;2023-08-08T08:23:40;17.90;99.90
33955;DHT22;20233;50.804;7.126;2023-08-08T08:26:07;18.00;99.90
33955;DHT22;20233;50.804;7.126;2023-08-08T08:28:35;18.20;99.90
33955;DHT22;20233;50.804;7.126;2023-08-08T08:31:06;18.20;99.90
33955;DHT22;20233;50.804;7.126;2023-08-08T08:33:32;18.30;99.90
33955;DHT22;20233;50.804;7.126;2023-08-08T08:35:59;18.30;99.90
33955;DHT22;20233;50.804;7.126;2023-08-08T08:38:25;18.20;99.90
33955;DHT22;20233;50.804;7.126;2023-08-08T08:40:56;18.30;99.90
33955;DHT22;20233;50.804;7.126;2023-08-08T08:43:22;18.30;99.90
33955;DHT22;20233;50.804;7.126;2023-08-08T08:45:52;18.30;99.90
33955;DHT22;20233;50.804;7.126;2023-08-08T08:48:21;18.20;99.90
33955;DHT22;20233;50.804;7.126;2023-08-08T08:50:50;18.30;99.90
33955;DHT22;20233;50.804;7.126;2023-08-08T08:53:17;18.40;99.90
33955;DHT22;20233;50.804;7.126;2023-08-08T08:55:44;18.50;99.90
33955;DHT22;20233;50.804;7.126;2023-08-08T08:58:11;18.40;99.90
33955;DHT22;20233;50.804;7.126;2023-08-08T09:00:39;18.60;99.90
33955;DHT22;20233;50.804;7.126;2023-08-08T09:03:06;18.60;99.90
33955;DHT22;20233;50.804;7.126;2023-08-08T09:05:33;18.70;99.90
33955;DHT22;20233;50.804;7.126;2023-08-08T09:08:01;18.80;99.90
33955;DHT22;20233;50.804;7.126;2023-08-08T09:10:30;18.80;99.90
33955;DHT22;20233;50.804;7.126;2023-08-08T09:12:58;19.00;99.90
33955;DHT22;20233;50.804;7.126;2023-08-08T09:15:24;19.00;99.90
33955;DHT22;20233;50.804;7.126;2023-08-08T09:20:19;19.10;99.90
33955;DHT22;20233;50.804;7.126;2023-08-08T09:22:45;19.30;99.90
33955;DHT22;20233;50.804;7.126;2023-08-08T09:27:41;19.70;99.90
33955;DHT22;20233;50.804;7.126;2023-08-08T09:30:09;19.60;99.90
33955;DHT22;20233;50.804;7.126;2023-08-08T09:32:36;19.70;99.90
33955;DHT22;20233;50.804;7.126;2023-08-08T09:35:03;19.80;99.90
33955;DHT22;20233;50.804;7.126;2023-08-08T09:37:35;19.80;99.90
33955;DHT22;20233;50.804;7.126;2023-08-08T09:40:02;19.90;99.90
33955;DHT22;20233;50.804;7.126;2023-08-08T09:42:31;19.90;99.90
33955;DHT22;20233;50.804;7.126;2023-08-08T09:44:59;19.90;99.90
33955;DHT22;20233;50.804;7.126;2023-08-08T09:47:26;19.90;99.90
33955;DHT22;20233;50.804;7.126;2023-08-08T09:50:03;20.00;99.90
33955;DHT22;20233;50.804;7.126;2023-08-08T09:52:52;19.90;99.90
33955;DHT22;20233;50.804;7.126;2023-08-08T09:55:22;20.00;99.90
33955;DHT22;20233;50.804;7.126;2023-08-08T09:57:50;20.00;99.90
33955;DHT22;20233;50.804;7.126;2023-08-08T10:00:17;20.10;99.90
33955;DHT22;20233;50.804;7.126;2023-08-08T10:02:44;20.10;99.90
33955;DHT22;20233;50.804;7.126;2023-08-08T10:05:12;20.10;99.90
33955;DHT22;20233;50.804;7.126;2023-08-08T10:07:40;20.00;99.90
33955;DHT22;20233;50.804;7.126;2023-08-08T10:10:10;20.20;99.90
33955;DHT22;20233;50.804;7.126;2023-08-08T10:12:41;20.20;99.90
33955;DHT22;20233;50.804;7.126;2023-08-08T10:15:11;20.30;99.90
33955;DHT22;20233;50.804;7.126;2023-08-08T10:17:39;20.40;99.90
33955;DHT22;20233;50.804;7.126;2023-08-08T10:20:08;20.60;99.90
33955;DHT22;20233;50.804;7.126;2023-08-08T10:22:42;20.70;99.90
33955;DHT22;20233;50.804;7.126;2023-08-08T10:25:24;20.60;99.90
33955;DHT22;20233;50.804;7.126;2023-08-08T10:28:07;20.60;99.90
33955;DHT22;20233;50.804;7.126;2023-08-08T10:30:47;20.50;99.90
33955;DHT22;20233;50.804;7.126;2023-08-08T10:33:17;20.50;99.90
33955;DHT22;20233;50.804;7.126;2023-08-08T10:36:05;20.60;99.90
33955;DHT22;20233;50.804;7.126;2023-08-08T10:38:48;20.50;99.90
33955;DHT22;20233;50.804;7.126;2023-08-08T10:41:18;20.40;99.90
33955;DHT22;20233;50.804;7.126;2023-08-08T10:43:58;20.50;99.90
33955;DHT22;20233;50.804;7.126;2023-08-08T10:46:30;20.60;99.90
33955;DHT22;20233;50.804;7.126;2023-08-08T10:48:58;20.70;99.90
33955;DHT22;20233;50.804;7.126;2023-08-08T10:51:45;20.90;99.90
33955;DHT22;20233;50.804;7.126;2023-08-08T10:54:15;21.10;99.90
33955;DHT22;20233;50.804;7.126;2023-08-08T10:56:48;21.10;99.90
33955;DHT22;20233;50.804;7.126;2023-08-08T10:59:17;21.20;99.90
33955;DHT22;20233;50.804;7.126;2023-08-08T11:01:49;21.20;99.90
33955;DHT22;20233;50.804;7.126;2023-08-08T11:04:22;21.20;99.90
33955;DHT22;20233;50.804;7.126;2023-08-08T11:06:52;21.20;99.90
33955;DHT22;20233;50.804;7.126;2023-08-08T11:09:19;21.30;99.90
33955;DHT22;20233;50.804;7.126;2023-08-08T11:11:46;21.20;99.90
33955;DHT22;20233;50.804;7.126;2023-08-08T11:14:18;21.30;99.90
33955;DHT22;20233;50.804;7.126;2023-08-08T11:16:46;21.30;99.90
33955;DHT22;20233;50.804;7.126;2023-08-08T11:19:14;21.30;99.90
33955;DHT22;20233;50.804;7.126;2023-08-08T11:21:46;21.40;99.90
33955;DHT22;20233;50.804;7.126;2023-08-08T11:24:13;21.40;99.90
33955;DHT22;20233;50.804;7.126;2023-08-08T11:26:42;21.50;99.90
33955;DHT22;20233;50.804;7.126;2023-08-08T11:29:11;21.70;99.90
33955;DHT22;20233;50.804;7.126;2023-08-08T11:31:38;21.70;99.90
33955;DHT22;20233;50.804;7.126;2023-08-08T11:34:06;21.50;99.90
33955;DHT22;20233;50.804;7.126;2023-08-08T11:36:36;21.40;99.90
33955;DHT22;20233;50.804;7.126;2023-08-08T11:39:05;21.20;99.90
33955;DHT22;20233;50.804;7.126;2023-08-08T11:41:37;21.20;99.90
33955;DHT22;20233;50.804;7.126;2023-08-08T11:44:05;21.20;99.90
33955;DHT22;20233;50.804;7.126;2023-08-08T11:46:34;21.20;99.90
33955;DHT22;20233;50.804;7.126;2023-08-08T11:49:06;21.30;99.90
33955;DHT22;20233;50.804;7.126;2023-08-08T11:51:34;21.20;99.90
33955;DHT22;20233;50.804;7.126;2023-08-08T11:54:03;21.40;99.90
33955;DHT22;20233;50.804;7.126;2023-08-08T11:56:33;21.50;99.90
33955;DHT22;20233;50.804;7.126;2023-08-08T11:59:01;21.40;99.90
33955;DHT22;20233;50.804;7.126;2023-08-08T12:01:30;21.50;99.90
33955;DHT22;20233;50.804;7.126;2023-08-08T12:03:58;21.40;99.90
33955;DHT22;20233;50.804;7.126;2023-08-08T12:06:28;21.50;99.90
33955;DHT22;20233;50.804;7.126;2023-08-08T12:08:55;21.40;99.90
33955;DHT22;20233;50.804;7.126;2023-08-08T12:11:22;21.40;99.90
33955;DHT22;20233;50.804;7.126;2023-08-08T12:13:48;21.40;99.90
33955;DHT22;20233;50.804;7.126;2023-08-08T12:16:14;21.20;99.90
33955;DHT22;20233;50.804;7.126;2023-08-08T12:18:42;21.20;99.90
33955;DHT22;20233;50.804;7.126;2023-08-08T12:21:09;21.30;99.90
33955;DHT22;20233;50.804;7.126;2023-08-08T12:23:36;20.90;99.90
33955;DHT22;20233;50.804;7.126;2023-08-08T12:26:04;21.20;99.90
33955;DHT22;20233;50.804;7.126;2023-08-08T12:28:34;21.30;99.90
33955;DHT22;20233;50.804;7.126;2023-08-08T12:31:01;21.50;99.90
33955;DHT22;20233;50.804;7.126;2023-08-08T12:33:28;21.30;99.90
33955;DHT22;20233;50.804;7.126;2023-08-08T12:35:55;21.50;99.90
33955;DHT22;20233;50.804;7.126;2023-08-08T12:38:22;21.70;99.90
33955;DHT22;20233;50.804;7.126;2023-08-08T12:40:48;21.70;99.90
33955;DHT22;20233;50.804;7.126;2023-08-08T12:43:15;21.80;99.90
33955;DHT22;20233;50.804;7.126;2023-08-08T12:45:45;21.80;99.90
33955;DHT22;20233;50.804;7.126;2023-08-08T12:48:12;21.80;99.90
33955;DHT22;20233;50.804;7.126;2023-08-08T12:50:39;21.80;99.90
33955;DHT22;20233;50.804;7.126;2023-08-08T12:53:07;21.70;99.90
33955;DHT22;20233;50.804;7.126;2023-08-08T12:55:34;21.50;99.90
33955;DHT22;20233;50.804;7.126;2023-08-08T12:58:02;21.60;99.90
33955;DHT22;20233;50.804;7.126;2023-08-08T13:00:29;21.40;99.90
33955;DHT22;20233;50.804;7.126;2023-08-08T13:02:56;21.20;99.90
33955;DHT22;20233;50.804;7.126;2023-08-08T13:05:23;21.20;99.90
33955;DHT22;20233;50.804;7.126;2023-08-08T13:07:51;21.00;99.90
33955;DHT22;20233;50.804;7.126;2023-08-08T13:10:17;21.10;99.90
33955;DHT22;20233;50.804;7.126;2023-08-08T13:12:47;21.20;99.90
33955;DHT22;20233;50.804;7.126;2023-08-08T13:15:13;21.10;99.90
33955;DHT22;20233;50.804;7.126;2023-08-08T13:17:41;21.20;99.90
33955;DHT22;20233;50.804;7.126;2023-08-08T13:20:08;21.20;99.90
33955;DHT22;20233;50.804;7.126;2023-08-08T13:22:35;20.90;99.90
33955;DHT22;20233;50.804;7.126;2023-08-08T13:25:02;20.90;99.90
33955;DHT22;20233;50.804;7.126;2023-08-08T13:27:29;21.00;99.90
33955;DHT22;20233;50.804;7.126;2023-08-08T13:29:56;20.90;99.90
33955;DHT22;20233;50.804;7.126;2023-08-08T13:32:23;20.90;99.90
33955;DHT22;20233;50.804;7.126;2023-08-08T13:34:50;20.50;99.90
33955;DHT22;20233;50.804;7.126;2023-08-08T13:37:17;20.50;99.90
33955;DHT22;20233;50.804;7.126;2023-08-08T13:39:45;20.60;99.90
33955;DHT22;20233;50.804;7.126;2023-08-08T13:42:11;20.70;99.90
33955;DHT22;20233;50.804;7.126;2023-08-08T13:44:38;20.60;99.90
33955;DHT22;20233;50.804;7.126;2023-08-08T13:47:08;20.40;99.90
33955;DHT22;20233;50.804;7.126;2023-08-08T13:49:34;20.30;99.90
33955;DHT22;20233;50.804;7.126;2023-08-08T13:52:02;20.50;99.90
33955;DHT22;20233;50.804;7.126;2023-08-08T13:54:29;20.60;99.90
33955;DHT22;20233;50.804;7.126;2023-08-08T13:56:57;20.70;99.90
33955;DHT22;20233;50.804;7.126;2023-08-08T13:59:24;20.60;99.90
33955;DHT22;20233;50.804;7.126;2023-08-08T14:01:53;20.60;99.90
33955;DHT22;20233;50.804;7.126;2023-08-08T14:04:20;20.60;99.90
33955;DHT22;20233;50.804;7.126;2023-08-08T14:06:46;20.80;99.90
33955;DHT22;20233;50.804;7.126;2023-08-08T14:09:12;20.80;99.90
33955;DHT22;20233;50.804;7.126;2023-08-08T14:11:38;20.90;99.90
33955;DHT22;20233;50.804;7.126;2023-08-08T14:14:05;20.80;99.90
33955;DHT22;20233;50.804;7.126;2023-08-08T14:16:32;20.80;99.90
33955;DHT22;20233;50.804;7.126;2023-08-08T14:19:01;20.70;99.90
33955;DHT22;20233;50.804;7.126;2023-08-08T14:21:29;20.80;99.90
33955;DHT22;20233;50.804;7.126;2023-08-08T14:23:57;20.80;99.90
33955;DHT22;20233;50.804;7.126;2023-08-08T14:26:24;20.80;99.90
33955;DHT22;20233;50.804;7.126;2023-08-08T14:28:52;20.80;99.90
33955;DHT22;20233;50.804;7.126;2023-08-08T14:31:19;20.80;99.90
33955;DHT22;20233;50.804;7.126;2023-08-08T14:33:47;20.80;99.90
33955;DHT22;20233;50.804;7.126;2023-08-08T14:36:14;20.80;99.90
33955;DHT22;20233;50.804;7.126;2023-08-08T14:38:40;20.70;99.90
33955;DHT22;20233;50.804;7.126;2023-08-08T14:41:07;20.40;99.90
33955;DHT22;20233;50.804;7.126;2023-08-08T14:43:34;20.30;99.90
33955;DHT22;20233;50.804;7.126;2023-08-08T14:46:03;20.10;99.90
33955;DHT22;20233;50.804;7.126;2023-08-08T14:48:35;20.00;99.90
33955;DHT22;20233;50.804;7.126;2023-08-08T14:51:03;20.10;99.90
33955;DHT22;20233;50.804;7.126;2023-08-08T14:53:33;20.20;99.90
33955;DHT22;20233;50.804;7.126;2023-08-08T14:56:00;20.40;99.90
33955;DHT22;20233;50.804;7.126;2023-08-08T14:58:27;20.20;99.90
33955;DHT22;20233;50.804;7.126;2023-08-08T15:00:55;20.40;99.90
33955;DHT22;20233;50.804;7.126;2023-08-08T15:03:22;20.50;99.90
33955;DHT22;20233;50.804;7.126;2023-08-08T15:05:50;20.70;99.90
33955;DHT22;20233;50.804;7.126;2023-08-08T15:08:17;20.70;99.90
33955;DHT22;20233;50.804;7.126;2023-08-08T15:10:44;21.00;99.90
33955;DHT22;20233;50.804;7.126;2023-08-08T15:13:11;21.10;99.90
33955;DHT22;20233;50.804;7.126;2023-08-08T15:15:37;21.20;99.90
33955;DHT22;20233;50.804;7.126;2023-08-08T15:18:08;21.20;99.90
33955;DHT22;20233;50.804;7.126;2023-08-08T15:20:35;21.20;99.90
33955;DHT22;20233;50.804;7.126;2023-08-08T15:23:02;21.10;99.90
33955;DHT22;20233;50.804;7.126;2023-08-08T15:25:30;21.00;99.90
33955;DHT22;20233;50.804;7.126;2023-08-08T15:27:57;21.00;99.90
33955;DHT22;20233;50.804;7.126;2023-08-08T15:30:29;21.00;99.90
33955;DHT22;20233;50.804;7.126;2023-08-08T15:32:57;20.90;99.90
33955;DHT22;20233;50.804;7.126;2023-08-08T15:35:24;20.80;99.90
33955;DHT22;20233;50.804;7.126;2023-08-08T15:37:51;20.90;99.90